Qualicum Beach, Canada
Current Conditions -  °F | °C
As of 3:00 AM on Tuesday 21 Oct 2014 (Local Time) from CYQQ Reporting Station
Broken Clouds Broken Clouds  
Wind Chill: 54°   Ceiling: 700
Heat Index: 54°   Visibility: 20mi
Dew Point: 52°   Wind: 9mph
Humidity: 94%   Direction: 170°S
Pressure: 29.71"   Gusts: NA
Location:  49.35°N, 124.44°W
Report Text: CYQQ 211000Z 17008KT 20SM BKN007 BKN040 12/11 A2971 RMK SF5SC2 SLP062
Loading
Personal Weather Stations






























Interactive Weather Map
Tropical Storm Tracking
New forecast layout! Learn more

10-Day Weather Forecast

Advertisements
Track Severe Weather on mobile